createdAt,value
2018-02-21T00:00:49.972Z,29.73
2018-02-21T00:03:25.051Z,30.13
2018-02-21T00:05:59.919Z,28.07
2018-02-21T00:08:34.561Z,27.53
2018-02-21T00:11:09.809Z,29.57
2018-02-21T00:13:44.955Z,28.60
2018-02-21T00:16:20.556Z,29.20
2018-02-21T00:18:55.675Z,28.13
2018-02-21T00:21:30.125Z,27.17
2018-02-21T00:24:04.943Z,27.97
2018-02-21T00:26:39.655Z,29.77
2018-02-21T00:29:14.890Z,28.80
2018-02-21T00:31:49.650Z,27.80
2018-02-21T00:34:24.039Z,30.27
2018-02-21T00:37:00.042Z,27.40
2018-02-21T00:39:35.601Z,28.17
2018-02-21T00:42:10.201Z,27.70
2018-02-21T00:44:45.128Z,28.80
2018-02-21T00:47:19.998Z,29.00
2018-02-21T00:49:54.888Z,26.70
2018-02-21T00:52:30.047Z,26.83
2018-02-21T00:55:05.276Z,29.05
2018-02-21T00:57:40.647Z,28.27
2018-02-21T01:00:15.975Z,26.83
2018-02-21T01:02:50.974Z,29.17
2018-02-21T01:05:26.575Z,29.70
2018-02-21T01:08:01.927Z,28.80
2018-02-21T01:10:37.003Z,31.10
2018-02-21T01:13:12.152Z,28.83
2018-02-21T01:15:47.639Z,27.67
2018-02-21T01:18:22.672Z,27.25
2018-02-21T01:20:57.791Z,27.60
2018-02-21T01:23:32.774Z,27.30
2018-02-21T01:26:08.072Z,27.85
2018-02-21T01:28:43.201Z,27.10
2018-02-21T01:31:17.997Z,28.55
2018-02-21T01:33:53.716Z,28.10
2018-02-21T01:36:28.775Z,27.27
2018-02-21T01:39:03.111Z,29.07
2018-02-21T01:41:38.199Z,26.83
2018-02-21T01:44:13.367Z,28.40
2018-02-21T01:46:48.059Z,27.80
2018-02-21T01:49:23.075Z,27.23
2018-02-21T01:52:00.068Z,28.30
2018-02-21T01:54:34.795Z,27.10
2018-02-21T01:57:10.056Z,29.50
2018-02-21T01:59:45.231Z,30.10
2018-02-21T02:02:19.959Z,27.80
2018-02-21T02:04:55.224Z,28.77
2018-02-21T02:07:29.939Z,26.20
2018-02-21T02:10:05.248Z,28.10
2018-02-21T02:12:40.684Z,26.52
2018-02-21T02:15:16.068Z,29.23
2018-02-21T02:17:51.272Z,26.03
2018-02-21T02:20:26.828Z,26.87
2018-02-21T02:23:02.067Z,27.43
2018-02-21T02:25:37.014Z,26.70
2018-02-21T02:28:11.372Z,29.57
2018-02-21T02:30:46.859Z,26.13
2018-02-21T02:33:21.932Z,27.77
2018-02-21T02:35:57.297Z,27.50
2018-02-21T02:38:39.682Z,28.50
2018-02-21T02:41:15.080Z,29.00
2018-02-21T02:43:49.807Z,27.95
2018-02-21T02:46:25.065Z,28.10
2018-02-21T02:49:00.826Z,27.62
2018-02-21T02:51:37.773Z,29.50
2018-02-21T02:54:13.080Z,32.00
2018-02-21T02:56:48.055Z,31.80
2018-02-21T02:59:22.886Z,33.22
2018-02-21T03:01:57.364Z,31.80
2018-02-21T03:04:31.992Z,30.30
2018-02-21T03:07:06.443Z,27.83
2018-02-21T03:09:41.935Z,26.97
2018-02-21T03:12:16.615Z,28.67
2018-02-21T03:14:51.075Z,29.50
2018-02-21T03:17:26.183Z,29.43
2018-02-21T03:20:01.366Z,29.30
2018-02-21T03:22:36.980Z,28.03
2018-02-21T03:25:12.188Z,27.13
2018-02-21T03:27:47.118Z,29.10
2018-02-21T03:30:22.076Z,28.50
2018-02-21T03:32:57.495Z,26.70
2018-02-21T03:35:33.064Z,28.90
2018-02-21T03:38:08.312Z,27.70
2018-02-21T03:40:42.951Z,27.52
2018-02-21T03:43:18.350Z,26.55
2018-02-21T03:45:53.191Z,26.73
2018-02-21T03:48:28.348Z,25.73
2018-02-21T03:51:02.971Z,28.70
2018-02-21T03:53:38.016Z,27.40
2018-02-21T03:56:13.289Z,24.20
2018-02-21T03:58:49.035Z,27.07
2018-02-21T04:01:23.493Z,26.87
2018-02-21T04:03:58.179Z,26.70
2018-02-21T04:06:33.048Z,28.20
2018-02-21T04:09:08.313Z,27.13
2018-02-21T04:11:43.178Z,26.50
2018-02-21T04:14:18.056Z,25.93
2018-02-21T04:16:53.215Z,25.87
2018-02-21T04:19:28.423Z,27.07
2018-02-21T04:22:04.215Z,26.83
2018-02-21T04:24:39.251Z,27.47
2018-02-21T04:27:14.503Z,27.30
2018-02-21T04:29:49.079Z,23.93
2018-02-21T04:32:24.426Z,24.30
2018-02-21T04:35:00.436Z,26.70
2018-02-21T04:37:35.695Z,26.47
2018-02-21T04:40:10.948Z,23.95
2018-02-21T04:42:46.851Z,26.10
2018-02-21T04:45:22.139Z,26.63
2018-02-21T04:47:57.235Z,26.90
2018-02-21T04:50:32.522Z,26.90
2018-02-21T04:53:07.227Z,26.13
2018-02-21T04:55:42.504Z,25.37
2018-02-21T04:58:22.851Z,26.00
2018-02-21T05:00:57.851Z,24.70
2018-02-21T05:03:33.307Z,25.57
2018-02-21T05:06:08.587Z,26.50
2018-02-21T05:08:43.234Z,26.13
2018-02-21T05:11:18.453Z,25.23
2018-02-21T05:13:53.486Z,27.60
2018-02-21T05:16:31.403Z,26.63
2018-02-21T05:19:06.517Z,33.37
2018-02-21T05:21:41.180Z,40.17
2018-02-21T05:24:16.459Z,33.95
2018-02-21T05:26:51.195Z,32.42
2018-02-21T05:29:25.554Z,25.17
2018-02-21T05:32:00.571Z,26.30
2018-02-21T05:34:35.617Z,28.73
2018-02-21T05:37:10.488Z,27.83
2018-02-21T05:39:45.395Z,26.37
2018-02-21T05:42:20.659Z,25.30
2018-02-21T05:44:55.390Z,28.10
2018-02-21T05:47:30.379Z,27.77
2018-02-21T05:50:04.395Z,27.30
2018-02-21T05:52:40.267Z,26.70
2018-02-21T05:55:15.591Z,25.73
2018-02-21T05:57:50.187Z,24.30
2018-02-21T06:00:25.294Z,26.00
2018-02-21T06:03:00.704Z,25.83
2018-02-21T06:05:35.764Z,26.10
2018-02-21T06:08:11.091Z,28.65
2018-02-21T06:10:46.416Z,32.80
2018-02-21T06:13:21.592Z,29.03
2018-02-21T06:15:57.162Z,27.08
2018-02-21T06:18:31.863Z,28.80
2018-02-21T06:21:06.866Z,25.80
2018-02-21T06:23:42.394Z,25.30
2018-02-21T06:26:17.687Z,27.27
2018-02-21T06:28:52.427Z,24.98
2018-02-21T06:31:27.443Z,27.33
2018-02-21T06:34:02.744Z,24.70
2018-02-21T06:36:37.627Z,24.50
2018-02-21T06:39:12.604Z,25.15
2018-02-21T06:41:47.539Z,25.50
2018-02-21T06:44:22.374Z,25.95
2018-02-21T06:46:57.643Z,24.70
2018-02-21T06:49:32.794Z,24.40
2018-02-21T06:52:07.796Z,25.30
2018-02-21T06:54:42.791Z,26.10
2018-02-21T06:57:17.748Z,27.70
2018-02-21T06:59:52.600Z,27.50
2018-02-21T07:02:36.670Z,29.10
2018-02-21T07:05:12.019Z,26.70
2018-02-21T07:07:47.560Z,26.20
2018-02-21T07:10:22.460Z,26.47
2018-02-21T07:12:57.628Z,27.90
2018-02-21T07:15:32.297Z,24.52
2018-02-21T07:18:07.743Z,29.33
2018-02-21T07:20:42.843Z,27.33
2018-02-21T07:23:17.719Z,23.27
2018-02-21T07:25:52.585Z,25.93
2018-02-21T07:28:27.436Z,25.10
2018-02-21T07:31:02.771Z,23.70
2018-02-21T07:33:37.895Z,24.60
2018-02-21T07:36:12.720Z,23.70
2018-02-21T07:38:47.491Z,25.90
2018-02-21T07:41:22.764Z,23.30
2018-02-21T07:43:58.021Z,23.50
2018-02-21T07:46:32.691Z,23.63
2018-02-21T07:49:07.764Z,26.23
2018-02-21T07:51:42.479Z,27.27
2018-02-21T07:54:17.780Z,26.50
2018-02-21T07:56:52.615Z,24.43
2018-02-21T07:59:27.903Z,24.80
2018-02-21T08:02:02.756Z,24.40
2018-02-21T08:04:37.512Z,24.33
2018-02-21T08:07:12.761Z,27.33
2018-02-21T08:09:47.752Z,24.67
2018-02-21T08:12:22.647Z,21.53
2018-02-21T08:14:57.928Z,24.67
2018-02-21T08:17:32.959Z,23.10
2018-02-21T08:20:08.046Z,23.17
2018-02-21T08:22:43.111Z,24.77
2018-02-21T08:25:18.772Z,22.60
2018-02-21T08:27:54.091Z,22.73
2018-02-21T08:30:28.635Z,22.67
2018-02-21T08:33:03.916Z,23.07
2018-02-21T08:35:41.963Z,23.90
2018-02-21T08:38:17.728Z,21.58
2018-02-21T08:40:52.596Z,21.30
2018-02-21T08:43:27.587Z,23.60
2018-02-21T08:46:02.169Z,22.07
2018-02-21T08:48:36.828Z,24.80
2018-02-21T08:51:11.671Z,22.80
2018-02-21T08:53:46.654Z,22.97
2018-02-21T08:56:21.944Z,21.53
2018-02-21T08:58:57.240Z,24.30
2018-02-21T09:01:31.994Z,22.70
2018-02-21T09:04:07.051Z,20.00
2018-02-21T09:06:42.205Z,20.93
2018-02-21T09:09:17.811Z,23.23
2018-02-21T09:11:52.856Z,23.90
2018-02-21T09:14:27.695Z,22.90
2018-02-21T09:17:02.732Z,22.40
2018-02-21T09:19:37.007Z,23.30
2018-02-21T09:22:12.180Z,20.80
2018-02-21T09:24:47.620Z,22.40
2018-02-21T09:27:22.679Z,20.20
2018-02-21T09:29:57.880Z,25.90
2018-02-21T09:32:32.707Z,24.00
2018-02-21T09:35:08.031Z,23.30
2018-02-21T09:37:42.863Z,23.10
2018-02-21T09:40:17.919Z,21.60
2018-02-21T09:42:52.644Z,23.62
2018-02-21T09:45:27.860Z,23.50
2018-02-21T09:48:03.069Z,25.57
2018-02-21T09:50:37.907Z,22.73
2018-02-21T09:53:13.041Z,24.67
2018-02-21T09:55:48.038Z,22.80
2018-02-21T09:58:22.792Z,23.30
2018-02-21T10:00:58.117Z,22.07
2018-02-21T10:03:33.387Z,22.20
2018-02-21T10:06:08.947Z,20.85
2018-02-21T10:08:43.785Z,22.67
2018-02-21T10:11:18.899Z,21.15
2018-02-21T10:13:53.832Z,22.53
2018-02-21T10:16:28.811Z,22.03
2018-02-21T10:19:03.301Z,21.23
2018-02-21T10:21:38.435Z,21.87
2018-02-21T10:24:14.619Z,20.90
2018-02-21T10:26:49.220Z,23.40
2018-02-21T10:29:23.922Z,22.27
2018-02-21T10:31:59.199Z,20.67
2018-02-21T10:34:34.284Z,21.87
2018-02-21T10:37:09.533Z,20.73
2018-02-21T10:39:44.976Z,20.07
2018-02-21T10:42:19.893Z,19.07
2018-02-21T10:44:55.043Z,21.70
2018-02-21T10:47:30.228Z,21.00
2018-02-21T10:50:05.515Z,21.62
2018-02-21T10:52:40.976Z,18.57
2018-02-21T10:55:15.819Z,20.73
2018-02-21T10:57:51.083Z,20.90
2018-02-21T11:00:32.291Z,20.35
2018-02-21T11:03:07.549Z,19.55
2018-02-21T11:05:43.019Z,20.63
2018-02-21T11:08:17.663Z,20.50
2018-02-21T11:10:52.327Z,19.20
2018-02-21T11:13:26.996Z,20.43
2018-02-21T11:16:01.919Z,18.65
2018-02-21T11:18:37.016Z,19.50
2018-02-21T11:21:11.707Z,22.33
2018-02-21T11:23:47.085Z,20.30
2018-02-21T11:26:21.767Z,18.83
2018-02-21T11:28:57.172Z,18.80
2018-02-21T11:31:32.135Z,19.97
2018-02-21T11:34:06.938Z,18.00
2018-02-21T11:36:41.992Z,17.53
2018-02-21T11:39:17.184Z,19.97
2018-02-21T11:41:52.165Z,17.60
2018-02-21T11:44:27.379Z,17.07
2018-02-21T11:47:02.435Z,17.77
2018-02-21T11:49:37.387Z,18.90
2018-02-21T11:52:12.621Z,17.70
2018-02-21T11:54:47.719Z,17.98
2018-02-21T11:57:23.024Z,16.90
2018-02-21T11:59:58.179Z,17.77
2018-02-21T12:02:33.791Z,15.83
2018-02-21T12:05:08.660Z,14.43
2018-02-21T12:07:43.623Z,16.70
2018-02-21T12:10:19.228Z,16.65
2018-02-21T12:12:54.151Z,17.50
2018-02-21T12:15:29.331Z,15.27
2018-02-21T12:18:03.987Z,16.98
2018-02-21T12:20:38.426Z,15.57
2018-02-21T12:23:13.067Z,14.00
2018-02-21T12:25:48.260Z,14.80
2018-02-21T12:28:23.399Z,16.80
2018-02-21T12:30:58.155Z,14.77
2018-02-21T12:33:33.235Z,16.60
2018-02-21T12:36:08.295Z,14.35
2018-02-21T12:38:43.142Z,15.10
2018-02-21T12:41:23.687Z,15.63
2018-02-21T12:43:58.117Z,15.73
2018-02-21T12:46:33.576Z,16.70
2018-02-21T12:49:09.278Z,15.17
2018-02-21T12:51:44.335Z,16.40
2018-02-21T12:54:19.580Z,14.17
2018-02-21T12:56:54.800Z,16.73
2018-02-21T12:59:30.299Z,15.85
2018-02-21T13:02:05.227Z,17.33
2018-02-21T13:04:39.771Z,16.73
2018-02-21T13:07:15.831Z,18.27
2018-02-21T13:09:52.054Z,14.77
2018-02-21T13:12:26.690Z,16.80
2018-02-21T13:15:01.799Z,14.87
2018-02-21T13:17:36.744Z,16.50
2018-02-21T13:20:11.325Z,16.67
2018-02-21T13:22:46.599Z,13.93
2018-02-21T13:25:21.779Z,15.27
2018-02-21T13:27:56.829Z,14.33
2018-02-21T13:30:31.927Z,17.07
2018-02-21T13:33:07.179Z,16.87
2018-02-21T13:35:42.155Z,16.07
2018-02-21T13:38:17.635Z,17.40
2018-02-21T13:40:52.615Z,17.37
2018-02-21T13:43:27.559Z,13.57
2018-02-21T13:46:02.007Z,17.03
2018-02-21T13:48:36.714Z,16.37
2018-02-21T13:51:12.363Z,15.65
2018-02-21T13:53:47.183Z,16.80
2018-02-21T13:56:21.687Z,13.93
2018-02-21T13:58:56.439Z,15.60
2018-02-21T14:01:31.748Z,16.80
2018-02-21T14:04:07.591Z,16.85
2018-02-21T14:06:42.629Z,15.73
2018-02-21T14:09:17.764Z,14.07
2018-02-21T14:11:52.674Z,16.33
2018-02-21T14:14:27.938Z,15.67
2018-02-21T14:17:02.751Z,15.23
2018-02-21T14:19:37.451Z,16.10
2018-02-21T14:22:12.535Z,13.53
2018-02-21T14:24:47.604Z,15.60
2018-02-21T14:27:23.459Z,14.80
2018-02-21T14:29:58.716Z,16.87
2018-02-21T14:32:34.167Z,16.20
2018-02-21T14:35:09.428Z,15.87
2018-02-21T14:37:44.691Z,16.13
2018-02-21T14:40:19.598Z,14.63
2018-02-21T14:42:53.967Z,23.27
2018-02-21T14:45:28.579Z,21.40
2018-02-21T14:48:03.540Z,19.17
2018-02-21T14:50:38.575Z,18.77
2018-02-21T14:53:13.764Z,20.40
2018-02-21T14:55:48.803Z,20.80
2018-02-21T14:58:23.995Z,14.77
2018-02-21T15:00:58.685Z,32.33
2018-02-21T15:03:34.495Z,18.47
2018-02-21T15:06:09.859Z,22.13
2018-02-21T15:08:44.599Z,16.93
2018-02-21T15:11:19.635Z,18.27
2018-02-21T15:13:54.711Z,18.43
2018-02-21T15:16:29.960Z,18.77
2018-02-21T15:19:05.653Z,16.80
2018-02-21T15:21:40.626Z,16.40
2018-02-21T15:24:15.816Z,16.10
2018-02-21T15:26:50.874Z,16.73
2018-02-21T15:29:26.444Z,17.98
2018-02-21T15:32:01.933Z,16.60
2018-02-21T15:34:36.984Z,16.30
2018-02-21T15:37:12.032Z,15.80
2018-02-21T15:39:47.606Z,16.23
2018-02-21T15:42:22.571Z,17.15
2018-02-21T15:44:57.732Z,13.60
2018-02-21T15:47:33.271Z,15.50
2018-02-21T15:50:08.880Z,17.13
2018-02-21T15:52:43.835Z,16.80
2018-02-21T15:55:18.908Z,16.33
2018-02-21T15:57:53.608Z,18.37
2018-02-21T16:00:28.711Z,16.03
2018-02-21T16:03:04.003Z,15.33
2018-02-21T16:05:38.948Z,15.33
2018-02-21T16:08:14.008Z,15.23
2018-02-21T16:10:48.860Z,15.23
2018-02-21T16:13:23.871Z,15.67
2018-02-21T16:15:58.943Z,15.80
2018-02-21T16:18:34.252Z,15.97
2018-02-21T16:21:09.976Z,15.07
2018-02-21T16:23:44.315Z,17.40
2018-02-21T16:26:19.779Z,14.38
2018-02-21T16:28:54.796Z,15.13
2018-02-21T16:31:29.840Z,15.43
2018-02-21T16:34:04.603Z,15.07
2018-02-21T16:36:39.795Z,16.43
2018-02-21T16:39:15.039Z,16.50
2018-02-21T16:41:49.844Z,16.10
2018-02-21T16:44:24.867Z,15.00
2018-02-21T16:46:59.960Z,13.57
2018-02-21T16:49:35.095Z,14.30
2018-02-21T16:52:10.335Z,15.85
2018-02-21T16:54:45.667Z,29.40
2018-02-21T16:57:20.784Z,69.20
2018-02-21T16:59:55.799Z,32.17
2018-02-21T17:02:30.747Z,25.00
2018-02-21T17:05:05.920Z,18.35
2018-02-21T17:07:41.001Z,18.47
2018-02-21T17:10:16.731Z,17.40
2018-02-21T17:12:51.660Z,17.25
2018-02-21T17:15:26.747Z,18.87
2018-02-21T17:18:02.206Z,17.20
2018-02-21T17:20:36.827Z,16.50
2018-02-21T17:23:12.134Z,19.23
2018-02-21T17:25:46.939Z,19.47
2018-02-21T17:28:21.902Z,17.30
2018-02-21T17:30:56.250Z,21.10
2018-02-21T17:33:30.802Z,22.90
2018-02-21T17:36:06.051Z,25.80
2018-02-21T17:38:41.327Z,18.20
2018-02-21T17:41:21.975Z,23.50
2018-02-21T17:43:57.863Z,21.20
2018-02-21T17:46:32.253Z,19.50
2018-02-21T17:49:07.892Z,17.75
2018-02-21T17:51:43.076Z,17.53
2018-02-21T17:54:17.420Z,16.40
2018-02-21T17:56:52.878Z,15.20
2018-02-21T17:59:27.963Z,16.00
2018-02-21T18:02:03.135Z,16.33
2018-02-21T18:04:38.028Z,14.73
2018-02-21T18:07:13.207Z,15.80
2018-02-21T18:09:48.033Z,16.33
2018-02-21T18:12:23.052Z,15.60
2018-02-21T18:14:57.987Z,16.13
2018-02-21T18:17:32.339Z,15.60
2018-02-21T18:20:08.152Z,16.60
2018-02-21T18:22:43.401Z,15.93
2018-02-21T18:25:18.519Z,15.57
2018-02-21T18:27:53.047Z,15.70
2018-02-21T18:30:27.381Z,15.93
2018-02-21T18:33:02.397Z,14.37
2018-02-21T18:35:37.187Z,16.00
2018-02-21T18:38:12.359Z,15.03
2018-02-21T18:40:47.219Z,16.00
2018-02-21T18:43:22.279Z,15.50
2018-02-21T18:45:57.015Z,13.77
2018-02-21T18:48:32.167Z,14.93
2018-02-21T18:51:07.260Z,19.17
2018-02-21T18:53:41.616Z,17.00
2018-02-21T18:56:16.907Z,15.35
2018-02-21T18:58:52.099Z,16.40
2018-02-21T19:01:27.170Z,15.63
2018-02-21T19:04:02.555Z,15.87
2018-02-21T19:06:39.023Z,15.07
2018-02-21T19:09:14.327Z,15.10
2018-02-21T19:11:49.226Z,14.30
2018-02-21T19:14:24.244Z,13.37
2018-02-21T19:16:59.203Z,14.73
2018-02-21T19:19:34.563Z,14.17
2018-02-21T19:22:10.008Z,14.75
2018-02-21T19:24:45.165Z,15.23
2018-02-21T19:27:20.843Z,13.50
2018-02-21T19:29:55.480Z,14.63
2018-02-21T19:32:30.124Z,15.47
2018-02-21T19:35:04.660Z,14.40
2018-02-21T19:37:39.284Z,16.50
2018-02-21T19:40:14.278Z,19.52
2018-02-21T19:42:49.416Z,19.47
2018-02-21T19:45:24.107Z,17.37
2018-02-21T19:47:59.337Z,18.03
2018-02-21T19:50:34.204Z,16.83
2018-02-21T19:53:09.485Z,24.47
2018-02-21T19:55:45.183Z,26.20
2018-02-21T19:58:20.398Z,23.30
2018-02-21T20:00:55.330Z,21.17
2018-02-21T20:03:30.926Z,20.83
2018-02-21T20:06:05.560Z,18.73
2018-02-21T20:08:40.637Z,18.03
2018-02-21T20:11:15.041Z,22.40
2018-02-21T20:13:50.164Z,23.67
2018-02-21T20:16:25.255Z,19.97
2018-02-21T20:19:00.435Z,18.70
2018-02-21T20:21:35.298Z,15.97
2018-02-21T20:24:10.053Z,15.23
2018-02-21T20:26:44.599Z,15.90
2018-02-21T20:29:19.563Z,14.10
2018-02-21T20:31:55.248Z,14.20
2018-02-21T20:34:30.336Z,15.47
2018-02-21T20:37:04.898Z,12.57
2018-02-21T20:39:40.343Z,13.77
2018-02-21T20:42:15.228Z,14.10
2018-02-21T20:44:50.268Z,14.83
2018-02-21T20:47:24.761Z,15.57
2018-02-21T20:49:59.937Z,15.00
2018-02-21T20:52:34.565Z,14.90
2018-02-21T20:55:09.347Z,14.45
2018-02-21T20:57:43.803Z,14.03
2018-02-21T21:00:18.391Z,14.38
2018-02-21T21:02:53.571Z,13.80
2018-02-21T21:05:28.339Z,12.90
2018-02-21T21:08:03.449Z,12.80
2018-02-21T21:10:37.839Z,13.30
2018-02-21T21:13:12.813Z,13.70
2018-02-21T21:15:47.514Z,13.07
2018-02-21T21:18:22.659Z,13.37
2018-02-21T21:20:57.962Z,13.83
2018-02-21T21:23:33.483Z,14.13
2018-02-21T21:26:08.657Z,12.82
2018-02-21T21:28:43.488Z,11.20
2018-02-21T21:31:18.755Z,13.10
2018-02-21T21:33:53.500Z,14.07
2018-02-21T21:36:28.660Z,13.43
2018-02-21T21:39:03.927Z,12.52
2018-02-21T21:41:38.565Z,12.70
2018-02-21T21:44:12.867Z,12.57
2018-02-21T21:46:47.923Z,12.60
2018-02-21T21:49:22.555Z,13.30
2018-02-21T21:51:57.611Z,11.57
2018-02-21T21:54:32.507Z,12.40
2018-02-21T21:57:07.787Z,12.87
2018-02-21T21:59:42.735Z,12.40
2018-02-21T22:02:17.865Z,11.73
2018-02-21T22:04:53.155Z,13.65
2018-02-21T22:07:28.076Z,13.70
2018-02-21T22:10:03.623Z,12.70
2018-02-21T22:12:38.787Z,12.50
2018-02-21T22:15:13.656Z,11.63
2018-02-21T22:17:48.863Z,12.20
2018-02-21T22:20:23.820Z,12.40
2018-02-21T22:22:58.823Z,12.97
2018-02-21T22:25:33.919Z,12.20
2018-02-21T22:28:09.484Z,12.55
2018-02-21T22:30:44.612Z,11.80
2018-02-21T22:33:19.601Z,12.43
2018-02-21T22:35:54.583Z,11.93
2018-02-21T22:38:29.760Z,11.23
2018-02-21T22:41:04.000Z,12.00
2018-02-21T22:43:38.696Z,12.80
2018-02-21T22:46:13.864Z,12.97
2018-02-21T22:48:48.888Z,12.10
2018-02-21T22:51:23.348Z,13.63
2018-02-21T22:53:58.636Z,12.60
2018-02-21T22:56:33.671Z,12.53
2018-02-21T22:59:09.799Z,12.13
2018-02-21T23:01:44.947Z,10.30
2018-02-21T23:04:19.848Z,11.63
2018-02-21T23:06:54.631Z,12.95
2018-02-21T23:09:29.687Z,11.47
2018-02-21T23:12:04.167Z,11.30
2018-02-21T23:14:39.711Z,12.23
2018-02-21T23:17:14.677Z,11.12
2018-02-21T23:19:49.724Z,12.83
2018-02-21T23:22:24.687Z,12.20
2018-02-21T23:24:59.691Z,12.23
2018-02-21T23:27:35.040Z,11.83
2018-02-21T23:30:09.675Z,13.00
2018-02-21T23:32:44.911Z,11.23
2018-02-21T23:35:20.564Z,11.98
2018-02-21T23:37:55.848Z,11.57
2018-02-21T23:40:31.049Z,12.03
2018-02-21T23:43:06.268Z,12.63
2018-02-21T23:45:40.827Z,12.40
2018-02-21T23:48:16.019Z,11.63
2018-02-21T23:50:51.284Z,11.93
2018-02-21T23:53:26.640Z,12.25
2018-02-21T23:56:03.046Z,12.90
2018-02-21T23:58:38.039Z,12.57
